sensor_id;sensor_type;location;lat;lon;timestamp;pressure;altitude;pressure_sealevel;temperature;humidity
22653;BME280;11493;43.344;26.226;2023-04-26T00:01:31;98285.75;;;10.70;100.00
22653;BME280;11493;43.344;26.226;2023-04-26T00:03:58;98277.63;;;10.73;100.00
22653;BME280;11493;43.344;26.226;2023-04-26T00:06:26;98281.06;;;10.70;100.00
22653;BME280;11493;43.344;26.226;2023-04-26T00:08:53;98275.09;;;10.68;100.00
22653;BME280;11493;43.344;26.226;2023-04-26T00:11:21;98299.31;;;10.75;100.00
22653;BME280;11493;43.344;26.226;2023-04-26T00:13:48;98289.22;;;10.79;100.00
22653;BME280;11493;43.344;26.226;2023-04-26T00:16:15;98284.53;;;10.79;100.00
22653;BME280;11493;43.344;26.226;2023-04-26T00:18:44;98287.16;;;10.88;100.00
22653;BME280;11493;43.344;26.226;2023-04-26T00:21:11;98282.00;;;10.86;100.00
22653;BME280;11493;43.344;26.226;2023-04-26T00:23:38;98274.22;;;10.89;100.00
22653;BME280;11493;43.344;26.226;2023-04-26T00:26:06;98277.31;;;10.99;100.00
22653;BME280;11493;43.344;26.226;2023-04-26T00:28:33;98273.19;;;11.05;100.00
22653;BME280;11493;43.344;26.226;2023-04-26T00:31:00;98272.50;;;11.08;100.00
22653;BME280;11493;43.344;26.226;2023-04-26T00:33:27;98269.31;;;11.06;100.00
22653;BME280;11493;43.344;26.226;2023-04-26T00:35:55;98270.34;;;11.14;100.00
22653;BME280;11493;43.344;26.226;2023-04-26T00:38:22;98264.47;;;11.15;100.00
22653;BME280;11493;43.344;26.226;2023-04-26T00:40:50;98251.16;;;11.17;100.00
22653;BME280;11493;43.344;26.226;2023-04-26T00:43:17;98258.38;;;11.22;100.00
22653;BME280;11493;43.344;26.226;2023-04-26T00:45:44;98257.56;;;11.22;100.00
22653;BME280;11493;43.344;26.226;2023-04-26T00:48:11;98254.81;;;11.22;100.00
22653;BME280;11493;43.344;26.226;2023-04-26T00:50:38;98256.09;;;11.24;100.00
22653;BME280;11493;43.344;26.226;2023-04-26T00:53:07;98262.16;;;11.17;100.00
22653;BME280;11493;43.344;26.226;2023-04-26T00:55:34;98248.88;;;11.07;100.00
22653;BME280;11493;43.344;26.226;2023-04-26T00:58:02;98253.44;;;11.15;100.00
22653;BME280;11493;43.344;26.226;2023-04-26T01:00:29;98250.16;;;11.10;100.00
22653;BME280;11493;43.344;26.226;2023-04-26T01:02:56;98248.44;;;11.05;100.00
22653;BME280;11493;43.344;26.226;2023-04-26T01:05:23;98235.59;;;10.97;100.00
22653;BME280;11493;43.344;26.226;2023-04-26T01:07:51;98248.66;;;11.00;100.00
22653;BME280;11493;43.344;26.226;2023-04-26T01:10:18;98253.69;;;10.98;100.00
22653;BME280;11493;43.344;26.226;2023-04-26T01:12:45;98248.19;;;10.98;100.00
22653;BME280;11493;43.344;26.226;2023-04-26T01:15:16;98248.66;;;11.00;100.00
22653;BME280;11493;43.344;26.226;2023-04-26T01:17:46;98253.25;;;10.96;100.00
22653;BME280;11493;43.344;26.226;2023-04-26T01:20:14;98246.25;;;10.86;100.00
22653;BME280;11493;43.344;26.226;2023-04-26T01:22:41;98262.06;;;10.90;100.00
22653;BME280;11493;43.344;26.226;2023-04-26T01:25:10;98261.25;;;10.89;100.00
22653;BME280;11493;43.344;26.226;2023-04-26T01:27:38;98255.75;;;10.89;100.00
22653;BME280;11493;43.344;26.226;2023-04-26T01:30:06;98257.25;;;10.86;100.00
22653;BME280;11493;43.344;26.226;2023-04-26T01:32:34;98254.84;;;10.85;100.00
22653;BME280;11493;43.344;26.226;2023-04-26T01:35:02;98235.56;;;10.73;100.00
22653;BME280;11493;43.344;26.226;2023-04-26T01:37:29;98236.59;;;10.80;100.00
22653;BME280;11493;43.344;26.226;2023-04-26T01:39:58;98245.31;;;10.82;100.00
22653;BME280;11493;43.344;26.226;2023-04-26T01:42:25;98241.88;;;10.73;100.00
22653;BME280;11493;43.344;26.226;2023-04-26T01:44:52;98234.63;;;10.69;100.00
22653;BME280;11493;43.344;26.226;2023-04-26T01:47:20;98217.88;;;10.62;100.00
22653;BME280;11493;43.344;26.226;2023-04-26T01:49:47;98234.88;;;10.76;100.00
22653;BME280;11493;43.344;26.226;2023-04-26T01:52:14;98232.13;;;10.76;100.00
22653;BME280;11493;43.344;26.226;2023-04-26T01:54:44;98233.16;;;10.71;100.00
22653;BME280;11493;43.344;26.226;2023-04-26T01:57:11;98229.84;;;10.78;100.00
22653;BME280;11493;43.344;26.226;2023-04-26T01:59:38;98223.75;;;10.84;100.00
22653;BME280;11493;43.344;26.226;2023-04-26T02:02:05;98217.91;;;10.86;100.00
22653;BME280;11493;43.344;26.226;2023-04-26T02:04:36;98226.41;;;10.81;100.00
22653;BME280;11493;43.344;26.226;2023-04-26T02:07:03;98225.94;;;10.79;100.00
22653;BME280;11493;43.344;26.226;2023-04-26T02:09:30;98220.66;;;10.74;100.00
22653;BME280;11493;43.344;26.226;2023-04-26T02:11:57;98221.81;;;10.73;100.00
22653;BME280;11493;43.344;26.226;2023-04-26T02:14:25;98222.84;;;10.68;100.00
22653;BME280;11493;43.344;26.226;2023-04-26T02:16:52;98226.84;;;10.71;100.00
22653;BME280;11493;43.344;26.226;2023-04-26T02:19:19;98216.75;;;10.63;100.00
22653;BME280;11493;43.344;26.226;2023-04-26T02:21:51;98219.03;;;10.61;100.00
22653;BME280;11493;43.344;26.226;2023-04-26T02:24:18;98221.09;;;10.64;100.00
22653;BME280;11493;43.344;26.226;2023-04-26T02:26:45;98218.56;;;10.59;100.00
22653;BME280;11493;43.344;26.226;2023-04-26T02:29:12;98212.94;;;10.55;100.00
22653;BME280;11493;43.344;26.226;2023-04-26T02:31:40;98215.38;;;10.57;100.00
22653;BME280;11493;43.344;26.226;2023-04-26T02:34:07;98228.09;;;10.61;100.00
22653;BME280;11493;43.344;26.226;2023-04-26T02:36:34;98220.66;;;10.62;100.00
22653;BME280;11493;43.344;26.226;2023-04-26T02:39:01;98224.19;;;10.62;100.00
22653;BME280;11493;43.344;26.226;2023-04-26T02:41:31;98226.94;;;10.62;100.00
22653;BME280;11493;43.344;26.226;2023-04-26T02:43:59;98224.06;;;10.59;100.00
22653;BME280;11493;43.344;26.226;2023-04-26T02:46:26;98221.31;;;10.59;100.00
22653;BME280;11493;43.344;26.226;2023-04-26T02:48:54;98218.78;;;10.53;100.00
22653;BME280;11493;43.344;26.226;2023-04-26T02:51:21;98228.91;;;10.62;100.00
22653;BME280;11493;43.344;26.226;2023-04-26T02:53:48;98227.41;;;10.64;100.00
22653;BME280;11493;43.344;26.226;2023-04-26T02:56:16;98228.91;;;10.62;100.00
22653;BME280;11493;43.344;26.226;2023-04-26T02:58:45;98226.81;;;10.59;100.00
22653;BME280;11493;43.344;26.226;2023-04-26T03:01:12;98228.91;;;10.62;100.00
22653;BME280;11493;43.344;26.226;2023-04-26T03:03:41;98222.72;;;10.65;100.00
22653;BME280;11493;43.344;26.226;2023-04-26T03:06:08;98222.03;;;10.68;100.00
22653;BME280;11493;43.344;26.226;2023-04-26T03:08:35;98227.78;;;10.75;100.00
22653;BME280;11493;43.344;26.226;2023-04-26T03:11:02;98219.28;;;10.80;100.00
22653;BME280;11493;43.344;26.226;2023-04-26T03:13:30;98229.38;;;10.88;100.00
22653;BME280;11493;43.344;26.226;2023-04-26T03:15:57;98228.69;;;10.91;100.00
22653;BME280;11493;43.344;26.226;2023-04-26T03:18:24;98236.03;;;10.99;100.00
22653;BME280;11493;43.344;26.226;2023-04-26T03:20:51;98234.91;;;11.00;100.00
22653;BME280;11493;43.344;26.226;2023-04-26T03:23:19;98226.41;;;11.05;100.00
22653;BME280;11493;43.344;26.226;2023-04-26T03:25:50;98223.31;;;11.07;100.00
22653;BME280;11493;43.344;26.226;2023-04-26T03:28:17;98217.22;;;11.01;100.00
22653;BME280;11493;43.344;26.226;2023-04-26T03:30:45;98224.00;;;11.04;100.00
22653;BME280;11493;43.344;26.226;2023-04-26T03:33:13;98222.97;;;11.08;100.00
22653;BME280;11493;43.344;26.226;2023-04-26T03:35:40;98231.34;;;11.12;100.00
22653;BME280;11493;43.344;26.226;2023-04-26T03:38:07;98215.75;;;11.04;100.00
22653;BME280;11493;43.344;26.226;2023-04-26T03:40:34;98230.03;;;11.22;100.00
22653;BME280;11493;43.344;26.226;2023-04-26T03:43:01;98234.50;;;11.26;100.00
22653;BME280;11493;43.344;26.226;2023-04-26T03:45:29;98235.78;;;11.29;100.00
22653;BME280;11493;43.344;26.226;2023-04-26T03:47:56;98232.56;;;11.27;100.00
22653;BME280;11493;43.344;26.226;2023-04-26T03:50:23;98241.63;;;11.39;100.00
22653;BME280;11493;43.344;26.226;2023-04-26T03:52:50;98251.81;;;11.51;100.00
22653;BME280;11493;43.344;26.226;2023-04-26T03:55:17;98247.22;;;11.55;100.00
22653;BME280;11493;43.344;26.226;2023-04-26T03:57:44;98253.59;;;11.71;100.00
22653;BME280;11493;43.344;26.226;2023-04-26T04:00:12;98257.06;;;11.80;100.00
22653;BME280;11493;43.344;26.226;2023-04-26T04:02:43;98262.34;;;11.86;100.00
22653;BME280;11493;43.344;26.226;2023-04-26T04:05:18;98255.66;;;11.87;100.00
22653;BME280;11493;43.344;26.226;2023-04-26T04:07:45;98259.75;;;11.93;100.00
22653;BME280;11493;43.344;26.226;2023-04-26T04:10:12;98270.78;;;11.93;100.00
22653;BME280;11493;43.344;26.226;2023-04-26T04:12:40;98266.75;;;11.90;100.00
22653;BME280;11493;43.344;26.226;2023-04-26T04:15:08;98281.09;;;11.96;100.00
22653;BME280;11493;43.344;26.226;2023-04-26T04:17:38;98279.72;;;12.02;100.00
22653;BME280;11493;43.344;26.226;2023-04-26T04:20:06;98282.00;;;12.00;100.00
22653;BME280;11493;43.344;26.226;2023-04-26T04:22:33;98285.22;;;12.02;100.00
22653;BME280;11493;43.344;26.226;2023-04-26T04:25:00;98289.59;;;12.03;100.00
22653;BME280;11493;43.344;26.226;2023-04-26T04:27:29;98290.03;;;12.05;100.00
22653;BME280;11493;43.344;26.226;2023-04-26T04:29:58;98284.06;;;12.03;100.00
22653;BME280;11493;43.344;26.226;2023-04-26T04:32:25;98301.28;;;12.12;100.00
22653;BME280;11493;43.344;26.226;2023-04-26T04:34:53;98298.16;;;12.13;100.00
22653;BME280;11493;43.344;26.226;2023-04-26T04:37:21;98291.16;;;12.16;100.00
22653;BME280;11493;43.344;26.226;2023-04-26T04:39:48;98292.41;;;12.18;100.00
22653;BME280;11493;43.344;26.226;2023-04-26T04:42:15;98290.25;;;12.12;100.00
22653;BME280;11493;43.344;26.226;2023-04-26T04:44:42;98292.97;;;12.24;100.00
22653;BME280;11493;43.344;26.226;2023-04-26T04:47:11;98298.47;;;12.24;100.00
22653;BME280;11493;43.344;26.226;2023-04-26T04:49:38;98308.81;;;12.27;100.00
22653;BME280;11493;43.344;26.226;2023-04-26T04:52:05;98307.41;;;12.33;100.00
22653;BME280;11493;43.344;26.226;2023-04-26T04:54:33;98314.63;;;12.38;100.00
22653;BME280;11493;43.344;26.226;2023-04-26T04:57:00;98314.72;;;12.41;100.00
22653;BME280;11493;43.344;26.226;2023-04-26T04:59:30;98308.31;;;12.37;100.00
22653;BME280;11493;43.344;26.226;2023-04-26T05:01:57;98313.13;;;12.40;100.00
22653;BME280;11493;43.344;26.226;2023-04-26T05:04:24;98311.28;;;12.44;100.00
22653;BME280;11493;43.344;26.226;2023-04-26T05:06:52;98319.84;;;12.55;100.00
22653;BME280;11493;43.344;26.226;2023-04-26T05:09:21;98309.34;;;12.61;100.00
22653;BME280;11493;43.344;26.226;2023-04-26T05:11:48;98312.72;;;12.70;100.00
22653;BME280;11493;43.344;26.226;2023-04-26T05:14:15;98309.09;;;12.81;100.00
22653;BME280;11493;43.344;26.226;2023-04-26T05:16:42;98303.41;;;12.90;100.00
22653;BME280;11493;43.344;26.226;2023-04-26T05:19:09;98296.91;;;12.98;100.00
22653;BME280;11493;43.344;26.226;2023-04-26T05:21:36;98309.75;;;13.06;100.00
22653;BME280;11493;43.344;26.226;2023-04-26T05:24:05;98307.97;;;13.14;100.00
22653;BME280;11493;43.344;26.226;2023-04-26T05:26:33;98305.88;;;13.23;100.00
22653;BME280;11493;43.344;26.226;2023-04-26T05:29:39;98303.72;;;13.32;100.00
22653;BME280;11493;43.344;26.226;2023-04-26T05:32:20;98297.53;;;13.39;100.00
22653;BME280;11493;43.344;26.226;2023-04-26T05:34:54;98299.31;;;13.47;100.00
22653;BME280;11493;43.344;26.226;2023-04-26T05:37:21;98291.09;;;13.51;100.00
22653;BME280;11493;43.344;26.226;2023-04-26T05:39:48;98293.06;;;13.50;100.00
22653;BME280;11493;43.344;26.226;2023-04-26T05:42:16;98302.59;;;13.53;100.00
22653;BME280;11493;43.344;26.226;2023-04-26T05:44:44;98308.22;;;13.56;100.00
22653;BME280;11493;43.344;26.226;2023-04-26T05:47:11;98295.47;;;13.52;100.00
22653;BME280;11493;43.344;26.226;2023-04-26T05:49:38;98305.00;;;13.54;100.00
22653;BME280;11493;43.344;26.226;2023-04-26T05:52:05;98306.59;;;13.55;100.00
22653;BME280;11493;43.344;26.226;2023-04-26T05:54:32;98302.50;;;13.49;100.00
22653;BME280;11493;43.344;26.226;2023-04-26T05:57:00;98316.47;;;13.37;100.00
22653;BME280;11493;43.344;26.226;2023-04-26T05:59:28;98307.28;;;13.33;100.00
22653;BME280;11493;43.344;26.226;2023-04-26T06:01:59;98297.56;;;13.23;100.00
22653;BME280;11493;43.344;26.226;2023-04-26T06:04:27;98292.91;;;13.11;100.00
22653;BME280;11493;43.344;26.226;2023-04-26T06:07:05;98296.38;;;13.08;100.00
22653;BME280;11493;43.344;26.226;2023-04-26T06:09:32;98279.19;;;12.99;100.00
22653;BME280;11493;43.344;26.226;2023-04-26T06:11:59;98290.69;;;13.01;100.00
22653;BME280;11493;43.344;26.226;2023-04-26T06:14:29;98300.06;;;13.28;100.00
22653;BME280;11493;43.344;26.226;2023-04-26T06:17:02;98290.56;;;13.61;100.00
22653;BME280;11493;43.344;26.226;2023-04-26T06:19:29;98285.66;;;13.89;100.00
22653;BME280;11493;43.344;26.226;2023-04-26T06:21:57;98278.19;;;14.09;100.00
22653;BME280;11493;43.344;26.226;2023-04-26T06:24:24;98286.56;;;14.51;100.00
22653;BME280;11493;43.344;26.226;2023-04-26T06:26:51;98280.50;;;14.65;95.57
22653;BME280;11493;43.344;26.226;2023-04-26T06:29:20;98272.19;;;14.65;91.97
22653;BME280;11493;43.344;26.226;2023-04-26T06:31:47;98277.25;;;14.82;93.68
22653;BME280;11493;43.344;26.226;2023-04-26T06:34:16;98278.41;;;14.81;93.39
22653;BME280;11493;43.344;26.226;2023-04-26T06:36:43;98284.06;;;14.88;92.21
22653;BME280;11493;43.344;26.226;2023-04-26T06:39:10;98281.72;;;14.90;91.13
22653;BME280;11493;43.344;26.226;2023-04-26T06:41:38;98292.13;;;14.74;89.07
22653;BME280;11493;43.344;26.226;2023-04-26T06:44:08;98266.34;;;14.70;90.22
22653;BME280;11493;43.344;26.226;2023-04-26T06:46:40;98285.59;;;14.86;88.54
22653;BME280;11493;43.344;26.226;2023-04-26T06:49:07;98288.84;;;14.91;88.06
22653;BME280;11493;43.344;26.226;2023-04-26T06:51:35;98288.69;;;14.81;88.38
22653;BME280;11493;43.344;26.226;2023-04-26T06:54:03;98290.09;;;14.94;85.63
22653;BME280;11493;43.344;26.226;2023-04-26T06:56:31;98295.75;;;15.01;86.26
22653;BME280;11493;43.344;26.226;2023-04-26T06:59:02;98302.59;;;14.84;86.13
22653;BME280;11493;43.344;26.226;2023-04-26T07:01:30;98308.69;;;14.93;86.52
22653;BME280;11493;43.344;26.226;2023-04-26T07:04:00;98301.34;;;15.04;86.50
22653;BME280;11493;43.344;26.226;2023-04-26T07:06:30;98304.81;;;14.98;85.44
22653;BME280;11493;43.344;26.226;2023-04-26T07:08:58;98309.50;;;15.17;86.21
22653;BME280;11493;43.344;26.226;2023-04-26T07:11:27;98302.28;;;15.35;87.83
22653;BME280;11493;43.344;26.226;2023-04-26T07:13:54;98305.28;;;15.49;89.07
22653;BME280;11493;43.344;26.226;2023-04-26T07:16:21;98306.31;;;15.64;87.89
22653;BME280;11493;43.344;26.226;2023-04-26T07:18:49;98310.22;;;15.59;85.78
22653;BME280;11493;43.344;26.226;2023-04-26T07:21:17;98315.41;;;15.64;86.27
22653;BME280;11493;43.344;26.226;2023-04-26T07:23:44;98317.28;;;15.83;86.92
22653;BME280;11493;43.344;26.226;2023-04-26T07:26:11;98313.72;;;15.83;86.84
22653;BME280;11493;43.344;26.226;2023-04-26T07:28:38;98307.03;;;15.87;87.33
22653;BME280;11493;43.344;26.226;2023-04-26T07:31:06;98308.28;;;15.90;87.47
22653;BME280;11493;43.344;26.226;2023-04-26T07:33:37;98306.50;;;16.04;86.70
22653;BME280;11493;43.344;26.226;2023-04-26T07:36:05;98311.22;;;16.30;85.17
22653;BME280;11493;43.344;26.226;2023-04-26T07:38:31;98312.34;;;16.26;79.14
22653;BME280;11493;43.344;26.226;2023-04-26T07:40:58;98301.03;;;16.12;76.18
22653;BME280;11493;43.344;26.226;2023-04-26T07:43:29;98317.22;;;16.06;72.57
22653;BME280;11493;43.344;26.226;2023-04-26T07:46:02;98325.50;;;15.76;71.96
22653;BME280;11493;43.344;26.226;2023-04-26T07:48:29;98311.03;;;15.90;73.76
22653;BME280;11493;43.344;26.226;2023-04-26T07:50:56;98303.53;;;16.20;74.54
22653;BME280;11493;43.344;26.226;2023-04-26T07:53:23;98313.38;;;16.48;74.46
22653;BME280;11493;43.344;26.226;2023-04-26T07:55:50;98313.06;;;16.86;72.45
22653;BME280;11493;43.344;26.226;2023-04-26T07:58:17;98310.19;;;16.79;70.37
22653;BME280;11493;43.344;26.226;2023-04-26T08:00:45;98334.16;;;16.61;70.75
22653;BME280;11493;43.344;26.226;2023-04-26T08:03:14;98321.56;;;16.33;72.77
22653;BME280;11493;43.344;26.226;2023-04-26T08:05:43;98324.63;;;16.25;72.09
22653;BME280;11493;43.344;26.226;2023-04-26T08:08:11;98326.25;;;15.99;72.93
22653;BME280;11493;43.344;26.226;2023-04-26T08:10:41;98328.59;;;15.97;71.36
22653;BME280;11493;43.344;26.226;2023-04-26T08:13:08;98323.53;;;16.03;71.98
22653;BME280;11493;43.344;26.226;2023-04-26T08:15:35;98319.34;;;16.16;71.43
22653;BME280;11493;43.344;26.226;2023-04-26T08:18:02;98323.00;;;16.24;68.70
22653;BME280;11493;43.344;26.226;2023-04-26T08:20:30;98315.16;;;16.29;68.18
22653;BME280;11493;43.344;26.226;2023-04-26T08:22:58;98308.69;;;16.55;69.96
22653;BME280;11493;43.344;26.226;2023-04-26T08:25:25;98308.66;;;16.52;68.81
22653;BME280;11493;43.344;26.226;2023-04-26T08:27:53;98315.13;;;16.63;66.04
22653;BME280;11493;43.344;26.226;2023-04-26T08:30:20;98304.78;;;16.60;64.65
22653;BME280;11493;43.344;26.226;2023-04-26T08:32:48;98311.19;;;16.64;65.02
22653;BME280;11493;43.344;26.226;2023-04-26T08:35:15;98323.22;;;16.71;63.93
22653;BME280;11493;43.344;26.226;2023-04-26T08:37:43;98312.91;;;16.72;65.41
22653;BME280;11493;43.344;26.226;2023-04-26T08:40:10;98313.03;;;16.53;66.80
22653;BME280;11493;43.344;26.226;2023-04-26T08:42:41;98330.97;;;16.59;65.35
22653;BME280;11493;43.344;26.226;2023-04-26T08:45:10;98316.25;;;16.88;66.07
22653;BME280;11493;43.344;26.226;2023-04-26T08:50:14;98320.06;;;17.17;65.43
22653;BME280;11493;43.344;26.226;2023-04-26T08:52:42;98316.00;;;17.52;63.46
22653;BME280;11493;43.344;26.226;2023-04-26T08:55:10;98310.81;;;17.47;62.50
22653;BME280;11493;43.344;26.226;2023-04-26T08:57:46;98309.28;;;17.05;63.40
22653;BME280;11493;43.344;26.226;2023-04-26T09:00:15;98311.34;;;16.74;63.45
22653;BME280;11493;43.344;26.226;2023-04-26T09:02:48;98316.00;;;16.67;62.54
22653;BME280;11493;43.344;26.226;2023-04-26T09:05:21;98304.63;;;16.79;64.21
22653;BME280;11493;43.344;26.226;2023-04-26T09:07:56;98301.66;;;16.98;63.83
22653;BME280;11493;43.344;26.226;2023-04-26T09:10:35;98304.28;;;16.84;63.76
22653;BME280;11493;43.344;26.226;2023-04-26T09:13:05;98293.53;;;16.79;63.16
22653;BME280;11493;43.344;26.226;2023-04-26T09:15:32;98301.84;;;16.79;64.57
22653;BME280;11493;43.344;26.226;2023-04-26T09:18:19;98312.44;;;17.03;64.31
22653;BME280;11493;43.344;26.226;2023-04-26T09:21:07;98317.22;;;17.10;65.41
22653;BME280;11493;43.344;26.226;2023-04-26T09:23:35;98310.31;;;16.90;66.00
22653;BME280;11493;43.344;26.226;2023-04-26T09:26:18;98305.63;;;16.97;65.04
22653;BME280;11493;43.344;26.226;2023-04-26T09:28:47;98315.25;;;17.11;63.46
22653;BME280;11493;43.344;26.226;2023-04-26T09:31:38;98292.69;;;17.19;63.40
22653;BME280;11493;43.344;26.226;2023-04-26T09:34:05;98307.66;;;17.04;62.83
22653;BME280;11493;43.344;26.226;2023-04-26T09:39:13;98300.56;;;17.06;64.57
22653;BME280;11493;43.344;26.226;2023-04-26T09:41:44;98301.25;;;16.96;61.54
22653;BME280;11493;43.344;26.226;2023-04-26T09:44:21;98306.03;;;16.99;61.36
22653;BME280;11493;43.344;26.226;2023-04-26T09:49:51;98303.56;;;16.91;59.24
22653;BME280;11493;43.344;26.226;2023-04-26T09:52:18;98294.09;;;16.62;58.80
22653;BME280;11493;43.344;26.226;2023-04-26T09:54:50;98253.94;;;16.52;61.99
22653;BME280;11493;43.344;26.226;2023-04-26T09:57:19;98301.28;;;17.00;62.91
22653;BME280;11493;43.344;26.226;2023-04-26T09:59:51;98295.53;;;17.26;63.10
22653;BME280;11493;43.344;26.226;2023-04-26T10:02:27;98274.56;;;17.36;61.69
22653;BME280;11493;43.344;26.226;2023-04-26T10:04:58;98273.94;;;17.57;60.78
22653;BME280;11493;43.344;26.226;2023-04-26T10:07:29;98279.69;;;17.78;58.30
22653;BME280;11493;43.344;26.226;2023-04-26T10:09:56;98275.72;;;17.86;58.04
22653;BME280;11493;43.344;26.226;2023-04-26T10:12:24;98278.09;;;17.81;56.49
22653;BME280;11493;43.344;26.226;2023-04-26T10:14:51;98269.34;;;17.79;57.49
22653;BME280;11493;43.344;26.226;2023-04-26T10:17:18;98268.56;;;17.85;55.14
22653;BME280;11493;43.344;26.226;2023-04-26T10:19:48;98263.41;;;17.91;56.97
22653;BME280;11493;43.344;26.226;2023-04-26T10:22:23;98270.88;;;17.69;55.79
22653;BME280;11493;43.344;26.226;2023-04-26T10:24:53;98254.75;;;17.41;56.21
22653;BME280;11493;43.344;26.226;2023-04-26T10:30:10;98263.25;;;17.62;59.46
22653;BME280;11493;43.344;26.226;2023-04-26T10:35:25;98258.56;;;17.70;56.26
22653;BME280;11493;43.344;26.226;2023-04-26T10:40:36;98260.25;;;17.92;57.85
22653;BME280;11493;43.344;26.226;2023-04-26T10:45:41;98264.78;;;18.25;57.13
22653;BME280;11493;43.344;26.226;2023-04-26T10:48:22;98263.56;;;18.16;56.26
22653;BME280;11493;43.344;26.226;2023-04-26T10:59:09;98258.59;;;18.78;54.90
22653;BME280;11493;43.344;26.226;2023-04-26T11:01:40;98267.34;;;18.80;55.91
22653;BME280;11493;43.344;26.226;2023-04-26T11:04:11;98259.00;;;18.91;54.08
22653;BME280;11493;43.344;26.226;2023-04-26T11:06:52;98276.09;;;18.71;54.06
22653;BME280;11493;43.344;26.226;2023-04-26T11:09:39;98279.19;;;18.49;55.50
22653;BME280;11493;43.344;26.226;2023-04-26T11:12:14;98263.72;;;18.55;55.73
22653;BME280;11493;43.344;26.226;2023-04-26T11:14:42;98264.00;;;18.25;54.32
22653;BME280;11493;43.344;26.226;2023-04-26T11:17:09;98269.13;;;18.19;54.91
22653;BME280;11493;43.344;26.226;2023-04-26T11:19:36;98264.00;;;18.25;52.98
22653;BME280;11493;43.344;26.226;2023-04-26T11:22:05;98262.06;;;18.39;53.26
22653;BME280;11493;43.344;26.226;2023-04-26T11:24:34;98249.72;;;18.33;54.35
22653;BME280;11493;43.344;26.226;2023-04-26T11:27:08;98260.91;;;18.51;54.00
22653;BME280;11493;43.344;26.226;2023-04-26T11:29:35;98264.13;;;18.60;54.52
22653;BME280;11493;43.344;26.226;2023-04-26T11:32:03;98269.63;;;18.43;54.31
22653;BME280;11493;43.344;26.226;2023-04-26T11:34:34;98269.16;;;18.26;54.00
22653;BME280;11493;43.344;26.226;2023-04-26T11:37:01;98254.47;;;18.29;52.58
22653;BME280;11493;43.344;26.226;2023-04-26T11:39:34;98264.13;;;18.64;51.98
22653;BME280;11493;43.344;26.226;2023-04-26T11:42:08;98251.78;;;18.65;52.00
22653;BME280;11493;43.344;26.226;2023-04-26T11:44:36;98262.03;;;18.32;51.35
22653;BME280;11493;43.344;26.226;2023-04-26T11:47:04;98262.44;;;18.34;51.17
22653;BME280;11493;43.344;26.226;2023-04-26T11:49:34;98268.13;;;18.70;53.08
22653;BME280;11493;43.344;26.226;2023-04-26T11:52:03;98253.06;;;18.99;55.06
22653;BME280;11493;43.344;26.226;2023-04-26T11:54:35;98261.03;;;19.19;51.93
22653;BME280;11493;43.344;26.226;2023-04-26T11:57:13;98261.41;;;19.49;52.25
22653;BME280;11493;43.344;26.226;2023-04-26T11:59:44;98261.41;;;19.42;52.50
22653;BME280;11493;43.344;26.226;2023-04-26T12:02:11;98266.97;;;19.35;54.52
22653;BME280;11493;43.344;26.226;2023-04-26T12:04:39;98271.38;;;19.75;51.88
22653;BME280;11493;43.344;26.226;2023-04-26T12:07:07;98268.97;;;19.70;49.53
22653;BME280;11493;43.344;26.226;2023-04-26T12:09:34;98260.22;;;19.64;51.50
22653;BME280;11493;43.344;26.226;2023-04-26T12:12:05;98257.41;;;19.72;49.02
22653;BME280;11493;43.344;26.226;2023-04-26T12:14:37;98257.03;;;19.34;50.75
22653;BME280;11493;43.344;26.226;2023-04-26T12:17:05;98266.19;;;18.99;52.43
22653;BME280;11493;43.344;26.226;2023-04-26T12:19:34;98257.78;;;18.70;51.32
22653;BME280;11493;43.344;26.226;2023-04-26T12:22:03;98260.94;;;18.62;53.12
22653;BME280;11493;43.344;26.226;2023-04-26T12:24:31;98254.59;;;18.65;52.20
22653;BME280;11493;43.344;26.226;2023-04-26T12:27:05;98255.41;;;18.80;53.32
22653;BME280;11493;43.344;26.226;2023-04-26T12:29:33;98259.44;;;19.14;51.83
22653;BME280;11493;43.344;26.226;2023-04-26T12:32:01;98228.34;;;18.94;50.84
22653;BME280;11493;43.344;26.226;2023-04-26T12:34:29;98248.25;;;18.82;51.54
22653;BME280;11493;43.344;26.226;2023-04-26T12:36:56;98249.06;;;19.00;52.67
22653;BME280;11493;43.344;26.226;2023-04-26T12:39:23;98253.06;;;19.10;51.79
22653;BME280;11493;43.344;26.226;2023-04-26T12:41:51;98245.09;;;18.98;51.47
22653;BME280;11493;43.344;26.226;2023-04-26T12:44:18;98250.66;;;19.01;52.29
22653;BME280;11493;43.344;26.226;2023-04-26T12:46:48;98243.50;;;19.15;51.94
22653;BME280;11493;43.344;26.226;2023-04-26T12:49:15;98238.69;;;18.76;51.11
22653;BME280;11493;43.344;26.226;2023-04-26T12:51:42;98237.09;;;18.79;53.51
22653;BME280;11493;43.344;26.226;2023-04-26T12:54:09;98243.00;;;18.49;53.73
22653;BME280;11493;43.344;26.226;2023-04-26T12:56:36;98236.63;;;18.48;54.17
22653;BME280;11493;43.344;26.226;2023-04-26T12:59:09;98241.03;;;18.63;53.99
22653;BME280;11493;43.344;26.226;2023-04-26T13:01:36;98241.47;;;18.76;54.11
22653;BME280;11493;43.344;26.226;2023-04-26T13:04:04;98251.41;;;18.70;55.04
22653;BME280;11493;43.344;26.226;2023-04-26T13:06:32;98246.25;;;18.76;53.36
22653;BME280;11493;43.344;26.226;2023-04-26T13:08:59;98243.03;;;18.63;54.42
22653;BME280;11493;43.344;26.226;2023-04-26T13:11:27;98245.41;;;18.54;55.54
22653;BME280;11493;43.344;26.226;2023-04-26T13:13:54;98248.97;;;18.54;56.96
22653;BME280;11493;43.344;26.226;2023-04-26T13:16:21;98252.13;;;18.46;56.28
22653;BME280;11493;43.344;26.226;2023-04-26T13:19:01;98256.13;;;18.52;56.72
22653;BME280;11493;43.344;26.226;2023-04-26T13:21:36;98238.63;;;18.48;57.46